Wetterstation Vordersexau
Wetterdaten: Dezember 2016
Datum Temp. A. Feuchte A. Luftdruck Regen Wind Richtung Taupunkt Windchill Windben
01.12.2016 1,1 C 78 % 1026,1 hPa 0,0 l/m 0,0 km/h O-SO -2,5 C 1,1 C 0,0 km/h
02.12.2016 0,9 C 81 % 1020,4 hPa 0,0 l/m 0,0 km/h O -2,1 C 0,9 C 0,0 km/h
03.12.2016 1,8 C 81 % 1018,2 hPa 0,0 l/m 0,1 km/h S-SO -1,2 C 1,8 C 0,0 km/h
04.12.2016 -1,5 C 80 % 1022,3 hPa 0,0 l/m 0,0 km/h SO -4,6 C -1,5 C 0,0 km/h
05.12.2016 -1,8 C 82 % 1024,5 hPa 0,0 l/m 0,0 km/h N-NW -4,5 C -1,8 C 0,0 km/h
06.12.2016 -2,0 C 85 % 1028,2 hPa 0,0 l/m 0,0 km/h W-NW -4,2 C -2,0 C 0,0 km/h
07.12.2016 -2,4 C 84 % 1031,7 hPa 0,0 l/m 0,0 km/h SO -4,7 C -2,4 C 0,0 km/h
08.12.2016 1,0 C 81 % 1030,6 hPa 0,0 l/m 0,0 km/h O-NO -1,9 C 1,0 C 0,0 km/h
09.12.2016 3,4 C 76 % 1029,1 hPa 0,0 l/m 0,0 km/h O -0,7 C 3,4 C 0,0 km/h
10.12.2016 3,7 C 73 % 1024,6 hPa 0,0 l/m 0,0 km/h O -1,2 C 3,7 C 0,0 km/h
11.12.2016 1,7 C 86 % 1022,3 hPa 0,0 l/m 0,0 km/h O -0,4 C 1,7 C 0,0 km/h
12.12.2016 3,6 C 80 % 1023,7 hPa 0,0 l/m 0,1 km/h O-NO 0,3 C 3,6 C 0,1 km/h
13.12.2016 -0,3 C 85 % 1023,8 hPa 0,0 l/m 0,0 km/h W -2,5 C -0,3 C 0,0 km/h
14.12.2016 3,1 C 82 % 1022,0 hPa 0,0 l/m 0,0 km/h W-NW 0,2 C 3,1 C 0,0 km/h
15.12.2016 -0,5 C 82 % 1023,3 hPa 0,0 l/m 0,0 km/h O-NO -3,2 C -0,5 C 0,0 km/h
16.12.2016 -0,8 C 78 % 1026,9 hPa 0,0 l/m 0,0 km/h N-NO -4,2 C -0,8 C 0,0 km/h
17.12.2016 -0,3 C 79 % 1034,5 hPa 0,0 l/m 0,0 km/h O-SO -3,5 C -0,3 C 0,0 km/h
18.12.2016 1,5 C 77 % 1032,4 hPa 0,0 l/m 0,0 km/h O -2,0 C 1,5 C 0,0 km/h
19.12.2016 3,5 C 75 % 1022,2 hPa 0,0 l/m 0,0 km/h N-NO -0,8 C 3,5 C 0,0 km/h
20.12.2016 -1,2 C 86 % 1020,3 hPa 0,0 l/m 0,0 km/h NO -3,3 C -1,2 C 0,0 km/h
21.12.2016 -1,3 C 85 % 1026,6 hPa 0,0 l/m 0,0 km/h SO -3,5 C -1,3 C 0,0 km/h
22.12.2016 1,5 C 82 % 1028,7 hPa 0,0 l/m 0,2 km/h N-NO -1,2 C 1,5 C 0,1 km/h
23.12.2016 5,6 C 80 % 1031,3 hPa 0,0 l/m 0,1 km/h W 2,4 C 5,6 C 0,1 km/h
24.12.2016 7,3 C 83 % 1029,3 hPa 0,0 l/m 13,1 km/h S-SW 4,7 C 2,9 C 7,3 km/h
25.12.2016 7,9 C 80 % 1029,2 hPa 0,0 l/m 13,3 km/h W 4,6 C 3,4 C 7,4 km/h
26.12.2016 5,9 C 83 % 1029,8 hPa 0,0 l/m 4,2 km/h SO 3,3 C 4,8 C 2,3 km/h
27.12.2016 3,3 C 78 % 1038,5 hPa 0,0 l/m 0,0 km/h SO -0,5 C 3,3 C 0,0 km/h
28.12.2016 -0,1 C 80 % 1039,7 hPa 0,0 l/m 0,0 km/h O -3,2 C -0,1 C 0,0 km/h
29.12.2016 -3,6 C 86 % 1035,6 hPa 0,0 l/m 0,0 km/h O-SO -5,6 C -3,6 C 0,0 km/h
30.12.2016 -4,3 C 86 % 1035,0 hPa 0,0 l/m 0,0 km/h O -6,3 C -4,3 C 0,0 km/h
31.12.2016 -4,9 C 86 % 1031,2 hPa 0,0 l/m 0,0 km/h S -6,9 C -4,9 C 0,0 km/h
Min-Datum 30.12.16 10.12.16 03.12.16 0 Tage 01.12.16 - 30.12.16 30.12.16 01.12.16
Min-Zeit 08:10 15:10 05:10 - 00:10 - 08:10 08:10 00:10
Minimum -8,9 C 42 % 1017,1 hPa - 0,0 km/h - -10,7 C -8,9 C 0,0 km/h
Max-Datum 10.12.16 04.12.16 27.12.16 01.12.16 26.12.16 - 26.12.16 10.12.16 26.12.16
Max-Zeit 15:10 06:10 20:10 00:10 14:10 - 12:10 15:10 14:10
Maximum 16,5 C 87 % 1041,3 hPa 0,0 l/m 38,2 km/h
SO
- 7,9 C 16,5 C 21,2 km/h
SO
Durchschnitt 1,0 C 81 % 1027,8 hPa #0,0 l/m 1,0 km/h O-SO -1,9 C 0,7 C 0,6 km/h

Durchschnitt Minimum Temp.-2,8 C
Durchschnitt Maximum Temp.7,2 C
www.sexauwetter.de